createdAt,value
2017-07-19T00:00:52.231Z,25.84
2017-07-19T00:02:02.290Z,25.84
2017-07-19T00:03:12.649Z,25.79
2017-07-19T00:04:22.987Z,25.79
2017-07-19T00:05:33.326Z,25.85
2017-07-19T00:06:43.401Z,25.85
2017-07-19T00:07:53.736Z,25.86
2017-07-19T00:09:03.784Z,25.82
2017-07-19T00:10:13.519Z,25.86
2017-07-19T00:11:23.893Z,25.89
2017-07-19T00:12:34.286Z,25.84
2017-07-19T00:13:44.634Z,25.82
2017-07-19T00:14:54.977Z,25.82
2017-07-19T00:16:05.010Z,25.85
2017-07-19T00:17:15.041Z,25.85
2017-07-19T00:18:25.125Z,25.88
2017-07-19T00:19:35.494Z,25.84
2017-07-19T00:20:45.543Z,25.86
2017-07-19T00:21:55.597Z,25.88
2017-07-19T00:23:05.940Z,25.86
2017-07-19T00:24:15.714Z,25.82
2017-07-19T00:25:26.060Z,25.88
2017-07-19T00:26:36.417Z,25.79
2017-07-19T00:27:46.793Z,25.89
2017-07-19T00:28:57.168Z,25.81
2017-07-19T00:30:07.575Z,25.84
2017-07-19T00:31:17.919Z,25.82
2017-07-19T00:32:27.952Z,25.85
2017-07-19T00:33:38.304Z,25.88
2017-07-19T00:34:48.648Z,25.78
2017-07-19T00:35:58.684Z,25.84
2017-07-19T00:37:08.736Z,25.78
2017-07-19T00:38:19.208Z,25.75
2017-07-19T00:39:29.549Z,25.78
2017-07-19T00:40:39.902Z,25.78
2017-07-19T00:41:50.295Z,25.75
2017-07-19T00:43:00.335Z,25.74
2017-07-19T00:44:10.390Z,25.78
2017-07-19T00:45:20.745Z,25.7
2017-07-19T00:46:31.097Z,25.76
2017-07-19T00:47:41.442Z,25.63
2017-07-19T00:48:51.811Z,25.62
2017-07-19T00:50:01.885Z,25.7
2017-07-19T00:51:11.932Z,25.66
2017-07-19T00:52:22.290Z,25.6
2017-07-19T00:53:32.637Z,25.56
2017-07-19T00:54:42.989Z,25.6
2017-07-19T00:55:53.341Z,25.57
2017-07-19T00:57:03.692Z,25.56
2017-07-19T00:58:14.080Z,25.59
2017-07-19T00:59:24.486Z,25.52
2017-07-19T01:00:34.211Z,25.52
2017-07-19T01:01:44.571Z,25.54
2017-07-19T01:02:54.920Z,25.57
2017-07-19T01:04:05.291Z,25.44
2017-07-19T01:05:15.383Z,25.44
2017-07-19T01:06:25.729Z,25.44
2017-07-19T01:07:36.079Z,25.45
2017-07-19T01:08:46.445Z,25.42
2017-07-19T01:09:56.797Z,25.39
2017-07-19T01:11:07.214Z,25.39
2017-07-19T01:12:17.560Z,25.42
2017-07-19T01:13:27.580Z,25.33
2017-07-19T01:14:37.626Z,25.26
2017-07-19T01:15:47.975Z,25.27
2017-07-19T01:16:58.341Z,25.24
2017-07-19T01:18:08.409Z,25.17
2017-07-19T01:19:18.764Z,25.14
2017-07-19T01:20:29.116Z,25
2017-07-19T01:21:39.170Z,25.11
2017-07-19T01:22:49.515Z,24.97
2017-07-19T01:23:59.887Z,24.97
2017-07-19T01:25:10.230Z,24.87
2017-07-19T01:26:20.575Z,24.92
2017-07-19T01:27:30.607Z,24.87
2017-07-19T01:28:41.005Z,24.87
2017-07-19T01:29:51.382Z,24.86
2017-07-19T01:31:01.729Z,24.75
2017-07-19T01:32:12.090Z,24.78
2017-07-19T01:33:22.430Z,24.78
2017-07-19T01:34:32.778Z,24.78
2017-07-19T01:35:43.126Z,24.82
2017-07-19T01:36:53.476Z,24.71
2017-07-19T01:38:03.828Z,24.7
2017-07-19T01:39:13.877Z,24.75
2017-07-19T01:40:24.263Z,24.8
2017-07-19T01:41:34.618Z,24.74
2017-07-19T01:42:44.669Z,24.74
2017-07-19T01:43:54.704Z,24.63
2017-07-19T01:45:05.057Z,24.59
2017-07-19T01:46:15.151Z,24.7
2017-07-19T01:47:25.512Z,24.64
2017-07-19T01:48:35.535Z,24.59
2017-07-19T01:49:45.570Z,24.63
2017-07-19T01:50:55.920Z,24.58
2017-07-19T01:52:06.330Z,24.46
2017-07-19T01:53:16.375Z,24.56
2017-07-19T01:54:26.734Z,24.45
2017-07-19T01:55:36.779Z,24.46
2017-07-19T01:56:46.828Z,24.32
2017-07-19T01:57:56.921Z,24.32
2017-07-19T01:59:07.272Z,24.32
2017-07-19T02:00:17.306Z,24.3
2017-07-19T02:01:27.337Z,24.29
2017-07-19T02:02:37.686Z,24.3
2017-07-19T02:03:48.085Z,24.17
2017-07-19T02:04:58.434Z,24.19
2017-07-19T02:06:08.798Z,24.09
2017-07-19T02:07:19.155Z,24.07
2017-07-19T02:08:29.504Z,24.03
2017-07-19T02:09:39.552Z,24.02
2017-07-19T02:10:49.569Z,24.03
2017-07-19T02:11:59.920Z,24.03
2017-07-19T02:13:10.275Z,23.99
2017-07-19T02:14:20.639Z,23.92
2017-07-19T02:15:30.851Z,23.97
2017-07-19T02:16:41.198Z,23.96
2017-07-19T02:17:51.218Z,23.92
2017-07-19T02:19:01.567Z,23.84
2017-07-19T02:20:11.602Z,23.87
2017-07-19T02:21:21.376Z,23.85
2017-07-19T02:22:31.716Z,23.85
2017-07-19T02:23:42.054Z,23.84
2017-07-19T02:24:52.394Z,23.79
2017-07-19T02:26:02.427Z,23.81
2017-07-19T02:27:12.825Z,23.78
2017-07-19T02:28:23.176Z,23.67
2017-07-19T02:29:33.521Z,23.71
2017-07-19T02:30:43.564Z,23.62
2017-07-19T02:31:53.593Z,23.63
2017-07-19T02:33:03.936Z,23.67
2017-07-19T02:34:13.968Z,23.63
2017-07-19T02:35:24.321Z,23.55
2017-07-19T02:36:34.677Z,23.53
2017-07-19T02:37:45.032Z,23.59
2017-07-19T02:38:55.390Z,23.38
2017-07-19T02:40:05.417Z,23.35
2017-07-19T02:41:15.441Z,23.41
2017-07-19T02:42:25.785Z,23.41
2017-07-19T02:43:36.114Z,23.28
2017-07-19T02:44:46.478Z,23.25
2017-07-19T02:45:56.820Z,23.25
2017-07-19T02:47:07.171Z,23.16
2017-07-19T02:48:17.206Z,23.19
2017-07-19T02:49:27.567Z,23.16
2017-07-19T02:50:37.904Z,23.15
2017-07-19T02:51:47.940Z,23.12
2017-07-19T02:52:58.281Z,23.21
2017-07-19T02:54:08.311Z,23.12
2017-07-19T02:55:18.660Z,23.1
2017-07-19T02:56:28.744Z,23.03
2017-07-19T02:57:39.096Z,23.1
2017-07-19T02:58:49.461Z,23.04
2017-07-19T02:59:59.817Z,23
2017-07-19T03:01:10.176Z,22.99
2017-07-19T03:33:10.064Z,19.86
2017-07-19T03:34:20.094Z,19.75
2017-07-19T03:35:30.119Z,19.78
2017-07-19T03:36:40.461Z,19.79
2017-07-19T03:37:50.793Z,19.86
2017-07-19T03:39:00.815Z,19.98
2017-07-19T03:40:11.159Z,20.07
2017-07-19T03:41:20.897Z,20.18
2017-07-19T03:42:30.937Z,20.22
2017-07-19T03:43:41.300Z,20.41
2017-07-19T03:44:51.696Z,20.51
2017-07-19T03:46:01.430Z,20.66
2017-07-19T03:47:11.464Z,20.82
2017-07-19T03:48:21.796Z,20.94
2017-07-19T03:49:32.138Z,21.06
2017-07-19T03:50:42.519Z,21.28
2017-07-19T03:51:52.562Z,21.36
2017-07-19T03:53:02.905Z,21.55
2017-07-19T03:54:12.931Z,21.52
2017-07-19T03:55:23.274Z,21.64
2017-07-19T03:56:33.664Z,21.74
2017-07-19T03:57:44.016Z,21.78
2017-07-19T03:58:54.357Z,21.92
2017-07-19T04:00:04.401Z,21.89
2017-07-19T04:01:14.449Z,22.09
2017-07-19T04:02:24.539Z,22.12
2017-07-19T04:03:34.904Z,22.22
2017-07-19T04:04:45.251Z,22.23
2017-07-19T04:05:55.602Z,22.27
2017-07-19T04:07:05.948Z,22.38
2017-07-19T04:08:16.334Z,22.41
2017-07-19T04:09:26.688Z,22.45
2017-07-19T04:10:37.097Z,22.48
2017-07-19T04:11:47.441Z,22.6
2017-07-19T04:12:57.480Z,22.63
2017-07-19T04:14:07.858Z,22.61
2017-07-19T04:15:18.201Z,22.66
2017-07-19T04:16:28.540Z,22.71
2017-07-19T04:17:38.570Z,22.76
2017-07-19T04:18:48.925Z,22.84
2017-07-19T04:19:59.267Z,22.92
2017-07-19T04:21:09.619Z,22.86
2017-07-19T04:22:19.979Z,22.99
2017-07-19T04:23:30.018Z,22.91
2017-07-19T04:24:40.358Z,23.03
2017-07-19T04:25:50.773Z,23.18
2017-07-19T04:27:01.111Z,23.14
2017-07-19T04:28:11.456Z,23.57
2017-07-19T04:29:21.831Z,24.93
2017-07-19T04:30:31.909Z,26.42
2017-07-19T04:31:42.315Z,27.59
2017-07-19T04:32:52.374Z,28.45
2017-07-19T04:34:02.731Z,29.14
2017-07-19T04:35:13.096Z,29.66
2017-07-19T04:36:22.822Z,30.19
2017-07-19T04:37:33.183Z,30.7
2017-07-19T04:38:43.521Z,31.04
2017-07-19T04:39:53.864Z,31.47
2017-07-19T04:41:04.216Z,31.8
2017-07-19T04:42:14.569Z,31.98
2017-07-19T04:43:24.968Z,32.28
2017-07-19T04:44:35.022Z,32.38
2017-07-19T04:45:45.374Z,32.37
2017-07-19T04:46:55.737Z,31.93
2017-07-19T04:48:06.086Z,31.63
2017-07-19T04:49:16.428Z,31.52
2017-07-19T04:50:26.789Z,31.87
2017-07-19T04:51:37.162Z,32.16
2017-07-19T04:52:47.529Z,32.57
2017-07-19T04:53:57.886Z,32.86
2017-07-19T04:55:07.977Z,33.18
2017-07-19T04:56:18.022Z,33.43
2017-07-19T04:57:28.384Z,33.68
2017-07-19T04:58:38.727Z,33.99
2017-07-19T04:59:48.753Z,34.15
2017-07-19T05:00:59.163Z,34.32
2017-07-19T05:02:09.543Z,34.48
2017-07-19T05:03:19.584Z,34.66
2017-07-19T05:04:29.622Z,34.84
2017-07-19T05:05:39.356Z,35.11
2017-07-19T05:06:49.757Z,35.18
2017-07-19T05:08:00.109Z,34.48
2017-07-19T05:09:10.474Z,33.74
2017-07-19T05:10:20.514Z,33.02
2017-07-19T05:11:30.557Z,32.84
2017-07-19T05:12:40.635Z,32.13
2017-07-19T05:13:50.353Z,31.31
2017-07-19T05:15:00.705Z,30.47
2017-07-19T05:16:11.063Z,29.88
2017-07-19T05:17:21.435Z,29.43
2017-07-19T05:18:31.823Z,29.03
2017-07-19T05:19:42.184Z,28.72
2017-07-19T05:20:51.930Z,28.55
2017-07-19T05:22:02.294Z,28.27
2017-07-19T05:23:12.672Z,28.08
2017-07-19T05:24:23.031Z,27.98
2017-07-19T05:25:33.387Z,28.01
2017-07-19T05:26:43.734Z,27.84
2017-07-19T05:27:53.780Z,27.66
2017-07-19T05:29:04.145Z,27.48
2017-07-19T05:30:14.192Z,27.46
2017-07-19T05:31:24.531Z,27.33
2017-07-19T05:32:34.307Z,27.3
2017-07-19T05:33:44.336Z,27.15
2017-07-19T05:34:54.391Z,27.11
2017-07-19T05:36:04.766Z,27
2017-07-19T05:37:15.182Z,27.05
2017-07-19T05:38:25.522Z,26.93
2017-07-19T05:39:35.863Z,26.99
2017-07-19T05:40:46.217Z,26.74
2017-07-19T05:41:56.258Z,26.72
2017-07-19T05:43:06.682Z,26.67
2017-07-19T05:44:17.044Z,26.67
2017-07-19T05:45:27.098Z,26.67
2017-07-19T05:46:37.440Z,26.63
2017-07-19T05:47:47.147Z,26.64
2017-07-19T05:48:57.494Z,26.64
2017-07-19T05:50:07.829Z,26.69
2017-07-19T05:51:18.179Z,26.79
2017-07-19T05:52:28.202Z,26.74
2017-07-19T05:53:38.544Z,26.79
2017-07-19T05:54:48.937Z,27
2017-07-19T05:55:59.278Z,27.31
2017-07-19T05:57:09.304Z,27.86
2017-07-19T05:58:19.657Z,28.67
2017-07-19T05:59:30.005Z,29.95
2017-07-19T06:00:40.090Z,30.75
2017-07-19T06:01:50.442Z,31.15
2017-07-19T06:03:00.481Z,31.43
2017-07-19T06:04:10.511Z,31.41
2017-07-19T06:05:20.563Z,31.68
2017-07-19T06:06:30.920Z,31.75
2017-07-19T06:07:41.259Z,31.81
2017-07-19T06:08:51.618Z,32.16
2017-07-19T06:10:01.971Z,32.08
2017-07-19T06:11:12.028Z,31.52
2017-07-19T06:12:22.137Z,31.43
2017-07-19T06:13:32.485Z,31
2017-07-19T06:14:42.530Z,30.82
2017-07-19T06:15:52.878Z,30.64
2017-07-19T06:17:02.955Z,30.89
2017-07-19T06:18:13.042Z,31.34
2017-07-19T06:19:23.075Z,31.59
2017-07-19T06:20:33.111Z,31.28
2017-07-19T06:21:43.457Z,30.71
2017-07-19T06:22:53.802Z,30.16
2017-07-19T06:24:04.140Z,29.89
2017-07-19T06:25:14.481Z,29.67
2017-07-19T06:26:24.829Z,29.45
2017-07-19T06:27:34.859Z,29.3
2017-07-19T06:28:44.902Z,29.1
2017-07-19T06:29:54.982Z,28.92
2017-07-19T06:31:04.696Z,28.83
2017-07-19T06:32:14.732Z,28.75
2017-07-19T06:33:24.485Z,28.65
2017-07-19T06:34:34.832Z,28.7
2017-07-19T06:35:45.238Z,28.65
2017-07-19T06:36:55.580Z,28.6
2017-07-19T06:38:06.044Z,28.51
2017-07-19T06:39:16.097Z,28.46
2017-07-19T06:40:26.440Z,28.43
2017-07-19T06:41:36.864Z,28.3
2017-07-19T06:42:46.602Z,28.38
2017-07-19T06:43:56.940Z,28.31
2017-07-19T06:45:07.281Z,28.2
2017-07-19T06:46:17.663Z,28.24
2017-07-19T06:47:28.031Z,28.16
2017-07-19T06:48:38.382Z,28.21
2017-07-19T06:49:48.724Z,28.17
2017-07-19T06:50:58.761Z,28.2
2017-07-19T06:52:08.809Z,28.31
2017-07-19T06:53:18.891Z,28.31
2017-07-19T06:54:28.933Z,28.72
2017-07-19T06:55:38.978Z,28.88
2017-07-19T06:56:49.318Z,29.08
2017-07-19T06:57:59.682Z,29.4
2017-07-19T06:59:10.128Z,29.54
2017-07-19T07:00:20.475Z,29.73
2017-07-19T07:01:30.512Z,29.91
2017-07-19T07:02:40.243Z,29.91
2017-07-19T07:03:50.589Z,30.03
2017-07-19T07:05:00.993Z,30.09
2017-07-19T07:06:11.341Z,30.18
2017-07-19T07:07:21.696Z,30.22
2017-07-19T07:08:31.722Z,30.29
2017-07-19T07:09:42.064Z,30.28
2017-07-19T07:10:52.111Z,30.13
2017-07-19T07:12:02.498Z,30.06
2017-07-19T07:13:12.851Z,30.13
2017-07-19T07:14:23.190Z,30.03
2017-07-19T07:15:33.541Z,30.13
2017-07-19T07:16:43.632Z,30.16
2017-07-19T07:17:54.007Z,30.22
2017-07-19T07:19:03.734Z,30.28
2017-07-19T07:20:14.089Z,30.39
2017-07-19T07:21:24.438Z,30.4
2017-07-19T07:22:34.824Z,30.44
2017-07-19T07:23:45.241Z,30.47
2017-07-19T07:24:55.601Z,30.52
2017-07-19T07:26:05.947Z,30.59
2017-07-19T07:27:16.315Z,30.71
2017-07-19T07:28:26.678Z,30.82
2017-07-19T07:29:37.031Z,30.86
2017-07-19T07:30:47.408Z,30.97
2017-07-19T07:31:57.778Z,31.03
2017-07-19T07:33:08.147Z,31.12
2017-07-19T07:34:18.519Z,31.08
2017-07-19T07:35:28.872Z,30.86
2017-07-19T07:36:39.217Z,30.67
2017-07-19T07:37:49.274Z,30.82
2017-07-19T07:38:59.636Z,30.84
2017-07-19T07:40:09.981Z,31.21
2017-07-19T07:41:20.667Z,31.43
2017-07-19T07:42:32.048Z,31.58
2017-07-19T07:43:43.248Z,31.91
2017-07-19T07:44:53.602Z,32.16
2017-07-19T07:46:03.645Z,32.43
2017-07-19T07:47:13.999Z,32.59
2017-07-19T07:48:24.346Z,32.62
2017-07-19T07:49:34.409Z,32.83
2017-07-19T07:50:44.778Z,32.98
2017-07-19T07:51:54.805Z,33.23
2017-07-19T07:53:05.208Z,33.39
2017-07-19T07:54:15.571Z,33.53
2017-07-19T07:55:25.911Z,33.62
2017-07-19T07:56:36.265Z,33.73
2017-07-19T07:57:46.621Z,33.77
2017-07-19T07:58:57.020Z,33.71
2017-07-19T08:00:07.071Z,33.65
2017-07-19T08:01:17.421Z,33.59
2017-07-19T08:02:27.773Z,33.62
2017-07-19T08:03:38.132Z,33.62
2017-07-19T08:04:48.540Z,33.63
2017-07-19T08:05:58.891Z,33.61
2017-07-19T08:07:09.260Z,33.62
2017-07-19T08:08:19.291Z,33.48
2017-07-19T08:09:29.679Z,33.48
2017-07-19T08:10:40.077Z,33.46
2017-07-19T08:11:50.470Z,33.47
2017-07-19T08:13:00.815Z,33.47
2017-07-19T08:14:11.181Z,33.58
2017-07-19T08:15:21.541Z,33.62
2017-07-19T08:16:31.934Z,33.71
2017-07-19T08:17:42.303Z,33.87
2017-07-19T08:18:52.646Z,33.73
2017-07-19T08:20:02.336Z,33.85
2017-07-19T08:21:12.402Z,33.84
2017-07-19T08:22:22.815Z,33.85
2017-07-19T08:23:33.164Z,33.74
2017-07-19T08:24:43.519Z,33.75
2017-07-19T08:25:53.889Z,33.85
2017-07-19T08:27:04.265Z,33.77
2017-07-19T08:28:14.669Z,33.71
2017-07-19T08:29:24.404Z,33.63
2017-07-19T08:30:34.761Z,33.59
2017-07-19T08:31:44.802Z,33.63
2017-07-19T08:32:54.525Z,33.63
2017-07-19T08:34:05.022Z,33.58
2017-07-19T08:35:15.088Z,33.52
2017-07-19T08:36:25.452Z,33.55
2017-07-19T08:37:35.821Z,33.66
2017-07-19T08:38:46.185Z,33.73
2017-07-19T08:39:55.921Z,33.84
2017-07-19T08:41:06.272Z,33.97
2017-07-19T08:42:16.621Z,34.03
2017-07-19T08:43:26.986Z,34.03
2017-07-19T08:44:37.337Z,34.15
2017-07-19T08:45:47.735Z,34.12
2017-07-19T08:46:57.819Z,34.24
2017-07-19T08:48:08.168Z,34.18
2017-07-19T08:49:18.550Z,34
2017-07-19T08:50:28.592Z,34.11
2017-07-19T08:51:38.648Z,34
2017-07-19T08:52:49.017Z,33.87
2017-07-19T08:53:59.058Z,33.81
2017-07-19T08:55:09.445Z,33.81
2017-07-19T08:56:19.799Z,33.84
2017-07-19T08:57:30.186Z,33.95
2017-07-19T08:58:40.220Z,34.08
2017-07-19T08:59:50.587Z,34.02
2017-07-19T09:01:00.942Z,34.03
2017-07-19T09:02:11.290Z,34.02
2017-07-19T09:03:21.706Z,34.06
2017-07-19T09:04:31.742Z,34.1
2017-07-19T09:05:42.099Z,34.26
2017-07-19T09:06:52.462Z,34.34
2017-07-19T09:08:02.823Z,34.37
2017-07-19T09:09:13.361Z,34.58
2017-07-19T09:10:23.744Z,34.51
2017-07-19T09:11:34.108Z,34.37
2017-07-19T09:12:44.465Z,34.4
2017-07-19T09:13:54.194Z,34.33
2017-07-19T09:15:04.289Z,34.32
2017-07-19T09:16:14.634Z,34.45
2017-07-19T09:17:25.001Z,34.66
2017-07-19T09:18:35.354Z,34.91
2017-07-19T09:19:45.078Z,35.05
2017-07-19T09:20:55.177Z,35.2
2017-07-19T09:22:05.220Z,35.12
2017-07-19T09:23:15.583Z,35.28
2017-07-19T09:24:25.940Z,35.38
2017-07-19T09:25:36.280Z,35.46
2017-07-19T09:26:46.696Z,35.47
2017-07-19T09:27:56.767Z,35.61
2017-07-19T09:29:06.814Z,35.58
2017-07-19T09:30:17.151Z,35.65
2017-07-19T09:31:27.500Z,35.71
2017-07-19T09:32:37.898Z,35.77
2017-07-19T09:33:48.244Z,35.94
2017-07-19T09:34:58.290Z,36.05
2017-07-19T09:36:08.655Z,36.22
2017-07-19T09:37:19.014Z,36.41
2017-07-19T09:38:29.521Z,36.58
2017-07-19T09:39:39.881Z,36.53
2017-07-19T09:40:50.263Z,36.55
2017-07-19T09:42:00.626Z,36.75
2017-07-19T09:43:10.974Z,36.8
2017-07-19T09:44:21.363Z,36.95
2017-07-19T09:45:31.420Z,37.15
2017-07-19T09:46:41.787Z,37.26
2017-07-19T09:47:52.142Z,37.31
2017-07-19T09:49:02.502Z,37.36
2017-07-19T09:50:12.929Z,37.57
2017-07-19T09:51:22.982Z,37.71
2017-07-19T09:52:33.340Z,37.91
2017-07-19T09:53:43.628Z,38.22
2017-07-19T09:54:53.994Z,38.55
2017-07-19T09:56:04.437Z,38.73
2017-07-19T09:57:14.179Z,39.01
2017-07-19T09:58:24.538Z,39.33
2017-07-19T09:59:34.895Z,39.38
2017-07-19T10:00:45.263Z,39.46
2017-07-19T10:01:55.480Z,39.62
2017-07-19T10:03:05.832Z,39.6
2017-07-19T10:04:15.894Z,39.64
2017-07-19T10:05:26.259Z,39.76
2017-07-19T10:06:36.307Z,39.69
2017-07-19T10:07:46.398Z,39.78
2017-07-19T10:08:56.783Z,39.65
2017-07-19T10:10:07.141Z,39.57
2017-07-19T10:11:16.902Z,39.5
2017-07-19T10:12:27.270Z,39.41
2017-07-19T10:13:37.316Z,39.35
2017-07-19T10:14:47.690Z,39.23
2017-07-19T10:15:57.758Z,38.96
2017-07-19T10:17:08.120Z,38.73
2017-07-19T10:18:18.486Z,38.52
2017-07-19T10:19:28.574Z,38.33
2017-07-19T10:20:38.943Z,38.3
2017-07-19T10:21:49.312Z,38.24
2017-07-19T10:22:59.697Z,38.42
2017-07-19T10:24:10.094Z,38.37
2017-07-19T10:25:20.182Z,38.2
2017-07-19T10:26:30.548Z,38.1
2017-07-19T10:27:40.937Z,38
2017-07-19T10:28:51.305Z,38.05
2017-07-19T10:30:01.677Z,38
2017-07-19T10:31:11.455Z,37.99
2017-07-19T10:32:21.803Z,37.96
2017-07-19T10:33:32.170Z,37.98
2017-07-19T10:34:42.541Z,37.81
2017-07-19T10:35:52.588Z,37.61
2017-07-19T10:37:02.695Z,37.29
2017-07-19T10:38:13.058Z,37.09
2017-07-19T10:39:23.432Z,36.83
2017-07-19T10:40:33.803Z,36.61
2017-07-19T10:41:43.844Z,36.41
2017-07-19T10:42:53.894Z,36.22
2017-07-19T10:44:04.264Z,36.21
2017-07-19T10:45:14.630Z,36.26
2017-07-19T10:46:25.009Z,36.19
2017-07-19T10:47:35.072Z,36.22
2017-07-19T10:48:45.441Z,36.25
2017-07-19T10:49:55.793Z,36.25
2017-07-19T10:51:06.154Z,36.19
2017-07-19T10:52:16.520Z,36.32
2017-07-19T10:53:26.882Z,36.37
2017-07-19T10:54:37.300Z,36.39
2017-07-19T10:55:47.682Z,36.39
2017-07-19T10:56:57.740Z,36.44
2017-07-19T10:58:07.756Z,36.46
2017-07-19T10:59:17.833Z,36.63
2017-07-19T11:00:27.942Z,36.74
2017-07-19T11:01:38.307Z,37.11
2017-07-19T11:02:47.742Z,37.39
2017-07-19T11:03:58.108Z,37.36
2017-07-19T11:05:08.179Z,37.59
2017-07-19T11:06:18.572Z,37.57
2017-07-19T11:07:28.956Z,37.83
2017-07-19T11:08:39.341Z,38.12
2017-07-19T11:09:49.406Z,38.59
2017-07-19T11:10:59.765Z,38.92
2017-07-19T11:12:10.186Z,39.3
2017-07-19T11:13:20.240Z,39.5
2017-07-19T11:14:30.603Z,39.71
2017-07-19T11:15:40.665Z,39.94
2017-07-19T11:16:50.710Z,40.08
2017-07-19T11:18:01.136Z,40.24
2017-07-19T11:19:11.179Z,40.47
2017-07-19T11:20:21.562Z,40.6
2017-07-19T11:21:31.936Z,40.72
2017-07-19T11:22:41.998Z,40.81
2017-07-19T11:23:52.419Z,40.93
2017-07-19T11:25:02.771Z,40.94
2017-07-19T11:26:13.150Z,40.84
2017-07-19T11:27:23.495Z,40.72
2017-07-19T11:28:33.848Z,40.75
2017-07-19T11:29:43.908Z,40.7
2017-07-19T11:30:54.268Z,40.93
2017-07-19T11:32:04.319Z,41.03
2017-07-19T11:33:14.681Z,41.15
2017-07-19T11:34:25.043Z,41.16
2017-07-19T11:35:35.482Z,41.03
2017-07-19T11:36:45.853Z,40.91
2017-07-19T11:37:56.199Z,40.75
2017-07-19T11:39:06.583Z,40.66
2017-07-19T11:40:16.949Z,40.74
2017-07-19T11:41:27.080Z,40.6
2017-07-19T11:42:37.461Z,40.44
2017-07-19T11:43:47.830Z,40.21
2017-07-19T11:44:58.204Z,40.03
2017-07-19T11:46:08.563Z,39.99
2017-07-19T11:47:18.609Z,39.74
2017-07-19T11:48:28.989Z,39.59
2017-07-19T11:49:39.052Z,39.59
2017-07-19T11:50:49.440Z,39.53
2017-07-19T11:51:59.800Z,39.33
2017-07-19T11:53:10.214Z,39.41
2017-07-19T11:54:19.963Z,39.16
2017-07-19T11:55:30.336Z,39.16
2017-07-19T11:56:40.718Z,39.01
2017-07-19T11:57:51.104Z,39
2017-07-19T11:59:01.558Z,39.01
2017-07-19T12:00:11.954Z,39.06
2017-07-19T12:01:22.342Z,38.99
2017-07-19T12:02:32.697Z,39.01
2017-07-19T12:03:43.073Z,39.09
2017-07-19T12:04:53.206Z,38.97
2017-07-19T12:06:03.574Z,38.84
2017-07-19T12:07:13.962Z,38.76
2017-07-19T12:08:24.033Z,38.65
2017-07-19T12:09:34.101Z,38.64
2017-07-19T12:10:44.201Z,38.77
2017-07-19T12:11:54.585Z,38.64
2017-07-19T12:13:04.946Z,38.66
2017-07-19T12:14:15.323Z,38.64
2017-07-19T12:15:25.697Z,38.52
2017-07-19T12:16:36.302Z,38.33
2017-07-19T12:17:46.666Z,38.56
2017-07-19T12:18:57.045Z,38.68
2017-07-19T12:20:07.410Z,38.68
2017-07-19T12:21:17.887Z,38.73
2017-07-19T12:22:28.387Z,38.85
2017-07-19T12:23:38.769Z,38.87
2017-07-19T12:24:49.139Z,38.55
2017-07-19T12:25:59.507Z,38.52
2017-07-19T12:27:09.913Z,38.58
2017-07-19T12:28:19.716Z,38.66
2017-07-19T12:29:30.089Z,38.68
2017-07-19T12:30:40.146Z,38.92
2017-07-19T12:31:50.515Z,38.87
2017-07-19T12:33:00.911Z,39.09
2017-07-19T12:34:11.350Z,39.18
2017-07-19T12:35:21.412Z,39.25
2017-07-19T12:36:31.794Z,39.38
2017-07-19T12:37:42.145Z,39.37
2017-07-19T12:38:52.502Z,39.4
2017-07-19T12:40:02.909Z,39.37
2017-07-19T12:41:12.982Z,39.34
2017-07-19T12:42:23.364Z,39.31
2017-07-19T12:43:33.455Z,39.33
2017-07-19T12:44:43.811Z,39.28
2017-07-19T12:45:54.224Z,39.11
2017-07-19T12:47:04.569Z,39.15
2017-07-19T12:48:14.936Z,38.96
2017-07-19T12:49:25.302Z,38.97
2017-07-19T12:50:35.660Z,38.97
2017-07-19T12:51:46.071Z,38.65
2017-07-19T12:52:56.449Z,38.37
2017-07-19T12:54:06.818Z,38.43
2017-07-19T12:55:16.862Z,38.27
2017-07-19T12:56:26.937Z,38.49
2017-07-19T12:57:36.999Z,38.58
2017-07-19T12:58:47.376Z,38.66
2017-07-19T12:59:57.757Z,38.73
2017-07-19T13:01:07.802Z,38.85
2017-07-19T13:02:18.168Z,39
2017-07-19T13:03:28.227Z,38.96
2017-07-19T13:04:38.352Z,39
2017-07-19T13:05:48.718Z,38.84
2017-07-19T13:06:58.782Z,38.65
2017-07-19T13:08:09.162Z,38.52
2017-07-19T13:09:19.524Z,38.59
2017-07-19T13:10:29.634Z,38.78
2017-07-19T13:11:39.994Z,38.9
2017-07-19T13:12:50.365Z,38.85
2017-07-19T13:14:00.410Z,38.71
2017-07-19T13:15:10.482Z,38.71
2017-07-19T13:16:21.145Z,38.56
2017-07-19T13:17:31.210Z,38.55
2017-07-19T13:18:41.584Z,38.56
2017-07-19T13:19:51.649Z,38.54
2017-07-19T13:21:02.031Z,38.68
2017-07-19T13:22:11.754Z,38.56
2017-07-19T13:23:21.799Z,38.7
2017-07-19T13:24:31.845Z,38.68
2017-07-19T13:25:42.214Z,38.56
2017-07-19T13:26:51.956Z,38.55
2017-07-19T13:28:02.060Z,38.52
2017-07-19T13:29:12.443Z,38.46
2017-07-19T13:30:22.825Z,38.36
2017-07-19T13:31:32.883Z,38.24
2017-07-19T13:32:43.249Z,38.21
2017-07-19T13:33:53.668Z,38.2
2017-07-19T13:35:04.026Z,38.27
2017-07-19T13:36:14.095Z,38.22
2017-07-19T13:37:24.477Z,38.44
2017-07-19T13:38:34.539Z,38.56
2017-07-19T13:39:44.986Z,38.65
2017-07-19T13:40:55.042Z,38.66
2017-07-19T13:42:05.093Z,38.73
2017-07-19T13:43:15.475Z,38.64
2017-07-19T13:44:25.532Z,38.5
2017-07-19T13:45:35.897Z,38.43
2017-07-19T13:46:46.284Z,38.2
2017-07-19T13:47:56.335Z,38.08
2017-07-19T13:49:06.728Z,37.96
2017-07-19T13:50:17.068Z,37.98
2017-07-19T13:51:27.598Z,37.88
2017-07-19T13:52:37.961Z,37.8
2017-07-19T13:53:48.351Z,37.83
2017-07-19T13:54:58.701Z,37.66
2017-07-19T13:56:09.099Z,37.74
2017-07-19T13:57:19.208Z,37.69
2017-07-19T13:58:29.196Z,37.71
2017-07-19T13:59:39.553Z,37.66
2017-07-19T14:00:49.951Z,37.68
2017-07-19T14:02:00.006Z,37.69
2017-07-19T14:03:10.105Z,37.68
2017-07-19T14:04:20.478Z,37.72
2017-07-19T14:05:30.835Z,37.71
2017-07-19T14:06:41.211Z,37.74
2017-07-19T14:07:51.577Z,37.75
2017-07-19T14:09:02.006Z,37.84
2017-07-19T14:10:12.371Z,37.84
2017-07-19T14:11:22.426Z,37.8
2017-07-19T14:12:32.820Z,37.84
2017-07-19T14:13:43.206Z,37.71
2017-07-19T14:14:53.649Z,37.65
2017-07-19T14:16:04.019Z,37.68
2017-07-19T14:17:14.394Z,37.51
2017-07-19T14:18:24.778Z,37.46
2017-07-19T14:19:35.146Z,37.3
2017-07-19T14:20:45.600Z,37.27
2017-07-19T14:21:55.659Z,37.19
2017-07-19T14:23:06.044Z,37.08
2017-07-19T14:24:16.432Z,36.9
2017-07-19T14:25:26.814Z,36.71
2017-07-19T14:26:37.232Z,36.53
2017-07-19T14:27:47.620Z,36.34
2017-07-19T14:28:58.004Z,36.25
2017-07-19T14:30:08.074Z,36.12
2017-07-19T14:31:18.460Z,35.92
2017-07-19T14:32:28.830Z,35.83
2017-07-19T14:33:38.887Z,35.61
2017-07-19T14:34:49.263Z,35.45
2017-07-19T14:35:59.629Z,35.16
2017-07-19T14:37:10.001Z,34.91
2017-07-19T14:38:20.410Z,34.69
2017-07-19T14:39:30.788Z,34.41
2017-07-19T14:40:41.182Z,34.18
2017-07-19T14:41:51.286Z,34.02
2017-07-19T14:43:01.694Z,33.71
2017-07-19T14:44:12.128Z,33.63
2017-07-19T14:45:22.538Z,33.39
2017-07-19T14:46:32.943Z,33.2
2017-07-19T14:47:43.022Z,33.01
2017-07-19T14:48:53.073Z,32.84
2017-07-19T14:50:03.476Z,32.74
2017-07-19T14:51:13.538Z,32.67
2017-07-19T14:52:23.896Z,32.56
2017-07-19T14:53:34.283Z,32.52
2017-07-19T14:54:44.673Z,32.35
2017-07-19T14:55:55.095Z,32.34
2017-07-19T14:57:05.478Z,32.16
2017-07-19T14:58:15.852Z,32.05
2017-07-19T14:59:25.940Z,31.88
2017-07-19T15:00:36.321Z,31.77
2017-07-19T15:01:46.749Z,31.7
2017-07-19T15:02:57.118Z,31.63
2017-07-19T15:04:07.485Z,31.65
2017-07-19T15:05:17.889Z,31.52
2017-07-19T15:06:28.252Z,31.43
2017-07-19T15:07:38.347Z,31.4
2017-07-19T15:08:48.705Z,31.4
2017-07-19T15:09:59.072Z,31.43
2017-07-19T15:11:09.665Z,31.34
2017-07-19T15:12:20.030Z,31.4
2017-07-19T15:13:30.718Z,31.43
2017-07-19T15:14:41.082Z,31.4
2017-07-19T15:15:51.465Z,31.41
2017-07-19T15:17:01.846Z,31.4
2017-07-19T15:18:11.896Z,31.41
2017-07-19T15:19:22.354Z,31.37
2017-07-19T15:20:32.729Z,31.36
2017-07-19T15:21:43.093Z,31.31
2017-07-19T15:22:53.491Z,31.33
2017-07-19T15:24:03.864Z,31.28
2017-07-19T15:25:14.294Z,31.28
2017-07-19T15:26:24.666Z,31.25
2017-07-19T15:27:34.718Z,31.34
2017-07-19T15:28:44.779Z,31.22
2017-07-19T15:29:54.546Z,31.25
2017-07-19T15:31:04.670Z,31.16
2017-07-19T15:32:15.069Z,31.19
2017-07-19T15:33:25.426Z,31.25
2017-07-19T15:34:35.493Z,31.25
2017-07-19T15:35:45.846Z,31.26
2017-07-19T15:36:56.259Z,31.26
2017-07-19T15:38:06.632Z,31.22
2017-07-19T15:39:17.005Z,31.19